Time;durP1;ratioP1;P1;durP2;ratioP2;P2;SDS_P1;SDS_P2;PMS_P1;PMS_P2;Temp;Humidity;BMP_temperature;BMP_pressure;BME280_temperature;BME280_humidity;BME280_pressure;Samples;Min_cycle;Max_cycle;Signal;HPM_P1;HPM_P2
2022/10/03 00:14:25;;;;;;;8.70;2.60;;;;;;;11.53;100.00;99586.72;659355;1277;139229;-84
2022/10/03 00:29:46;;;;;;;8.00;3.10;;;;;;;11.64;100.00;99585.90;657832;1277;139364;-85
2022/10/03 00:45:28;;;;;;;8.00;3.40;;;;;;;11.60;100.00;99578.21;658557;1277;140339;-85
2022/10/03 01:00:34;;;;;;;7.30;3.60;;;;;;;11.53;100.00;99559.52;657941;1279;139233;-85
2022/10/03 01:16:16;;;;;;;7.90;2.60;;;;;;;11.56;100.00;99543.65;658699;1277;138969;-85
2022/10/03 01:31:26;;;;;;;13.30;3.60;;;;;;;11.58;100.00;99537.25;659292;1277;138721;-85
2022/10/03 01:46:39;;;;;;;5.60;1.90;;;;;;;11.66;100.00;99534.15;658765;1277;142114;-86
2022/10/03 02:01:51;;;;;;;7.50;2.80;;;;;;;11.74;100.00;99521.59;657521;1277;139299;-85
2022/10/03 02:17:02;;;;;;;7.10;2.70;;;;;;;11.80;100.00;99518.48;658178;1277;138847;-86
2022/10/03 02:32:43;;;;;;;8.10;2.60;;;;;;;11.90;100.00;99522.19;658947;1277;139239;-86
2022/10/03 02:48:27;;;;;;;7.40;3.00;;;;;;;11.92;100.00;99525.86;658063;1277;139635;-85
2022/10/03 03:03:40;;;;;;;13.20;3.20;;;;;;;11.96;100.00;99522.61;658063;1277;138856;-88
2022/10/03 03:19:11;;;;;;;9.20;3.30;;;;;;;12.03;100.00;99519.86;658385;1277;139013;-86
2022/10/03 03:34:41;;;;;;;9.10;2.70;;;;;;;12.00;100.00;99507.37;659132;1277;140080;-86
2022/10/03 03:49:59;;;;;;;8.40;3.20;;;;;;;12.05;100.00;99496.83;659002;1277;138959;-86
2022/10/03 04:05:31;;;;;;;8.50;3.50;;;;;;;12.17;100.00;99486.27;658584;1277;139416;-88
2022/10/03 04:21:08;;;;;;;7.30;2.80;;;;;;;12.24;100.00;99491.63;659138;1277;139180;-87
2022/10/03 04:36:41;;;;;;;5.70;2.40;;;;;;;12.32;100.00;99489.73;661144;1277;138558;-87
2022/10/03 04:51:59;;;;;;;5.10;3.50;;;;;;;12.40;100.00;99496.18;665905;1277;139360;-89
2022/10/03 05:07:07;;;;;;;10.70;3.60;;;;;;;12.51;100.00;99505.24;658832;1277;139585;-88
2022/10/03 05:22:36;;;;;;;7.70;4.10;;;;;;;12.55;100.00;99507.77;658201;1277;139416;-87
2022/10/03 05:38:11;;;;;;;5.40;4.10;;;;;;;12.66;100.00;99511.51;657854;1277;139792;-88
2022/10/03 05:53:43;;;;;;;6.20;3.60;;;;;;;12.80;100.00;99514.55;658174;1277;1026361;-88
2022/10/03 06:09:05;;;;;;;11.30;4.90;;;;;;;12.96;100.00;99521.07;658457;1277;139234;-87
2022/10/03 06:25:03;;;;;;;11.00;7.80;;;;;;;13.12;100.00;99534.70;658152;1277;139585;-87
2022/10/03 06:40:34;;;;;;;8.60;4.70;;;;;;;13.34;100.00;99535.63;657517;1277;139038;-83
2022/10/03 06:55:57;;;;;;;9.60;6.20;;;;;;;13.33;100.00;99547.38;659167;1277;139495;-85
2022/10/03 07:11:09;;;;;;;10.10;7.10;;;;;;;13.41;100.00;99560.39;657985;1277;139190;-85
2022/10/03 07:26:34;;;;;;;10.50;6.00;;;;;;;13.31;100.00;99590.61;658238;1277;139534;-85
2022/10/03 07:41:42;;;;;;;9.20;5.40;;;;;;;13.57;100.00;99597.95;661570;1277;139416;-87
2022/10/03 07:57:05;;;;;;;9.40;4.70;;;;;;;13.59;100.00;99628.64;657928;1277;139452;-85
2022/10/03 08:12:51;;;;;;;7.40;4.20;;;;;;;13.60;100.00;99665.63;657281;1277;139668;-85
2022/10/03 08:28:16;;;;;;;10.50;4.00;;;;;;;13.88;100.00;99702.78;657396;1277;140868;-86
2022/10/03 08:43:39;;;;;;;6.40;3.00;;;;;;;14.03;100.00;99733.85;660240;1277;139744;-84
2022/10/03 08:59:15;;;;;;;4.40;3.00;;;;;;;14.14;100.00;99769.90;659128;1277;139281;-83
2022/10/03 09:14:56;;;;;;;9.50;3.30;;;;;;;15.15;100.00;99799.60;659426;1277;139349;-84
2022/10/03 09:30:16;;;;;;;7.30;4.10;;;;;;;17.05;100.00;99814.89;658926;1277;140780;-85
2022/10/03 09:45:25;;;;;;;7.60;3.80;;;;;;;17.66;98.10;99841.61;660183;1277;140014;-84
2022/10/03 10:01:07;;;;;;;6.30;3.20;;;;;;;17.15;92.09;99860.23;663333;1277;138468;-84
2022/10/03 10:16:31;;;;;;;5.20;1.70;;;;;;;17.95;87.84;99864.57;669175;1277;139118;-83
2022/10/03 10:32:13;;;;;;;3.30;1.80;;;;;;;18.24;80.51;99880.17;659928;1277;138539;-82
2022/10/03 10:47:53;;;;;;;7.50;2.30;;;;;;;18.15;73.63;99884.86;658548;1277;138797;-83
2022/10/03 11:03:16;;;;;;;10.30;2.70;;;;;;;18.53;69.83;99908.41;659277;1277;138054;-83
2022/10/03 11:18:58;;;;;;;8.10;2.80;;;;;;;18.15;67.79;99913.55;658148;1279;138682;-84
2022/10/03 11:34:45;;;;;;;4.00;1.90;;;;;;;18.46;67.92;99929.32;659813;1277;138304;-85
2022/10/03 11:50:15;;;;;;;6.90;3.70;;;;;;;19.20;66.53;99938.77;659428;1279;138004;-84
2022/10/03 12:05:43;;;;;;;4.00;2.80;;;;;;;17.72;67.20;99966.12;660314;1278;138691;-84
2022/10/03 12:21:10;;;;;;;11.90;5.90;;;;;;;18.05;68.84;99964.45;660253;1279;138817;-85
2022/10/03 12:36:16;;;;;;;5.00;3.00;;;;;;;19.09;66.20;99972.48;660237;1279;137943;-84
2022/10/03 12:51:46;;;;;;;4.20;2.40;;;;;;;19.81;63.33;99995.18;659886;1278;137957;-85
2022/10/03 13:06:55;;;;;;;10.70;5.40;;;;;;;20.88;61.55;100013.19;660480;1278;138496;-85
2022/10/03 13:22:25;;;;;;;4.70;2.50;;;;;;;19.48;60.54;100032.92;663545;1277;139653;-84
2022/10/03 13:37:41;;;;;;;7.50;4.20;;;;;;;21.15;59.08;100035.58;661303;1278;139083;-83
2022/10/03 13:52:54;;;;;;;18.00;5.80;;;;;;;21.37;57.35;100053.70;657042;1279;139158;-84
2022/10/03 14:08:05;;;;;;;8.70;4.70;;;;;;;21.49;59.50;100065.41;656704;1277;138470;-85
2022/10/03 14:23:22;;;;;;;9.10;5.80;;;;;;;20.17;57.58;100076.27;656824;1279;138614;-84
2022/10/03 14:38:57;;;;;;;5.90;2.70;;;;;;;26.87;51.10;100089.59;657622;1279;139013;-85
2022/10/03 14:54:23;;;;;;;6.60;3.30;;;;;;;26.60;46.56;100091.59;659310;1277;139299;-86
2022/10/03 15:09:39;;;;;;;11.00;7.60;;;;;;;25.77;47.55;100094.31;658167;1279;137950;-85
2022/10/03 15:24:45;;;;;;;12.90;6.90;;;;;;;21.82;52.32;100102.48;659312;1279;138527;-84
2022/10/03 15:39:52;;;;;;;55.00;23.40;;;;;;;19.29;58.43;100106.30;659390;1277;138713;-84
2022/10/03 15:55:00;;;;;;;13.00;6.70;;;;;;;17.17;63.18;100101.65;660107;1277;138868;-83
2022/10/03 16:10:24;;;;;;;7.20;4.00;;;;;;;15.69;66.13;100112.70;658686;1279;139598;-83
2022/10/03 16:25:45;;;;;;;5.60;2.40;;;;;;;14.78;69.35;100123.55;657865;1279;138620;-83
2022/10/03 16:41:21;;;;;;;8.70;5.00;;;;;;;14.33;72.18;100127.65;657216;1277;138785;-82
2022/10/03 16:56:32;;;;;;;11.80;6.30;;;;;;;14.18;75.36;100128.70;657471;1279;139762;-83
2022/10/03 17:11:39;;;;;;;36.20;23.20;;;;;;;14.02;78.53;100135.81;659305;1277;139171;-84
2022/10/03 17:26:56;;;;;;;124.30;63.30;;;;;;;13.85;80.80;100137.02;659110;1278;139164;-83
2022/10/03 17:42:20;;;;;;;38.80;16.50;;;;;;;13.66;84.67;100132.27;659500;1279;139218;-83
2022/10/03 17:57:33;;;;;;;20.40;9.40;;;;;;;13.51;87.28;100134.77;659343;1277;1103613;-84
2022/10/03 18:12:42;;;;;;;34.30;22.10;;;;;;;13.41;88.66;100135.82;659427;1279;139288;-85
2022/10/03 18:28:21;;;;;;;46.50;30.50;;;;;;;13.13;91.48;100137.66;661528;1279;139425;-84
2022/10/03 18:43:35;;;;;;;47.20;27.70;;;;;;;12.82;94.63;100121.52;662426;1279;139500;-84
2022/10/03 18:58:48;;;;;;;32.80;18.10;;;;;;;12.59;97.08;100127.64;668476;1279;139687;-84
2022/10/03 19:14:11;;;;;;;34.20;21.40;;;;;;;12.50;98.11;100128.00;664128;1279;138868;-84
2022/10/03 19:29:27;;;;;;;17.50;13.20;;;;;;;12.44;99.47;100124.52;660737;1279;139709;-84
2022/10/03 19:44:32;;;;;;;17.20;11.10;;;;;;;12.25;100.00;100122.16;668613;1279;140346;-83
2022/10/03 19:59:44;;;;;;;14.40;9.10;;;;;;;12.39;100.00;100114.98;658837;1279;140734;-83
2022/10/03 20:14:50;;;;;;;12.40;7.70;;;;;;;12.32;100.00;100108.16;659470;1279;139238;-83
2022/10/03 20:30:04;;;;;;;13.60;9.30;;;;;;;12.32;100.00;100106.89;658265;1279;139915;-84
2022/10/03 20:45:21;;;;;;;10.70;6.30;;;;;;;12.43;100.00;100103.17;657556;1279;140206;-83
2022/10/03 21:00:25;;;;;;;8.80;5.30;;;;;;;12.33;100.00;100102.59;660152;1278;139975;-84
2022/10/03 21:15:31;;;;;;;7.00;5.60;;;;;;;12.15;100.00;100103.16;657249;1279;140050;-84
2022/10/03 21:31:14;;;;;;;10.40;5.90;;;;;;;12.16;100.00;100106.19;657046;1278;139163;-85
2022/10/03 21:46:45;;;;;;;9.10;5.30;;;;;;;12.20;100.00;100105.98;656624;1279;139729;-85
2022/10/03 22:02:02;;;;;;;7.30;4.80;;;;;;;12.20;100.00;100100.57;657187;1279;140117;-83
2022/10/03 22:17:16;;;;;;;8.20;4.40;;;;;;;12.27;100.00;100102.86;657449;1279;139727;-83
2022/10/03 22:32:24;;;;;;;6.10;3.10;;;;;;;12.38;100.00;100099.35;658063;1278;139299;-83
2022/10/03 22:47:31;;;;;;;3.20;2.60;;;;;;;12.34;100.00;100090.73;656901;1279;139445;-83
2022/10/03 23:02:41;;;;;;;3.10;2.50;;;;;;;12.31;100.00;100080.55;657426;1279;139355;-83
2022/10/03 23:17:56;;;;;;;3.60;2.30;;;;;;;12.12;100.00;100083.44;656421;1279;139506;-82
2022/10/03 23:32:59;;;;;;;4.70;3.00;;;;;;;12.03;100.00;100078.02;656974;1280;140260;-83
2022/10/03 23:48:07;;;;;;;5.00;3.20;;;;;;;11.83;100.00;100081.29;656718;1279;139429;-83
